Time;durP1;ratioP1;P1;durP2;ratioP2;P2;SDS_P1;SDS_P2;PMS_P1;PMS_P2;Temp;Humidity;BMP_temperature;BMP_pressure;BME280_temperature;BME280_humidity;BME280_pressure;Samples;Min_cycle;Max_cycle;Signal;HPM_P1;HPM_P2
2021/05/14 00:00:40;;;;;;;28.48;21.33;;;12.00;94.30;;;;;;4991444;28;20102;-68
2021/05/14 00:03:06;;;;;;;29.65;22.27;;;12.00;94.20;;;;;;4992635;28;20029;-68
2021/05/14 00:05:34;;;;;;;28.77;22.63;;;12.00;94.30;;;;;;4990803;28;20037;-68
2021/05/14 00:08:00;;;;;;;27.30;21.77;;;12.00;94.20;;;;;;4992286;28;20022;-68
2021/05/14 00:10:26;;;;;;;28.15;23.55;;;11.90;94.20;;;;;;4992358;28;20483;-68
2021/05/14 00:12:52;;;;;;;30.63;24.60;;;11.90;94.20;;;;;;4992526;28;20037;-68
2021/05/14 00:15:18;;;;;;;30.67;24.67;;;11.90;94.20;;;;;;4990817;28;20435;-68
2021/05/14 00:17:44;;;;;;;30.45;23.80;;;11.90;94.30;;;;;;4991673;28;20110;-68
2021/05/14 00:20:10;;;;;;;25.95;21.15;;;11.80;94.30;;;;;;4992233;28;20018;-68
2021/05/14 00:22:35;;;;;;;24.77;20.80;;;11.80;94.30;;;;;;4992324;28;20413;-68
2021/05/14 00:25:01;;;;;;;26.92;21.30;;;11.70;94.20;;;;;;4992063;28;20049;-68
2021/05/14 00:27:27;;;;;;;26.77;22.00;;;11.70;94.20;;;;;;4992186;28;20037;-68
2021/05/14 00:29:52;;;;;;;31.80;23.90;;;11.60;94.20;;;;;;4991069;28;20057;-68
2021/05/14 00:32:18;;;;;;;30.73;23.52;;;11.60;94.30;;;;;;4982648;28;20042;-68
2021/05/14 00:34:43;;;;;;;30.52;23.48;;;11.60;94.30;;;;;;4991928;28;20026;-68
2021/05/14 00:37:09;;;;;;;32.72;24.92;;;11.60;94.40;;;;;;4991854;28;20034;-68
2021/05/14 00:39:34;;;;;;;30.05;24.48;;;11.50;94.40;;;;;;4988359;28;20031;-67
2021/05/14 00:42:00;;;;;;;32.03;25.02;;;11.50;94.50;;;;;;4992049;28;20080;-68
2021/05/14 00:44:37;;;;;;;30.48;24.10;;;11.40;94.50;;;;;;4992020;28;20134;-68
2021/05/14 00:47:05;;;;;;;29.30;23.95;;;11.40;94.50;;;;;;4990815;28;20118;-68
2021/05/14 00:49:31;;;;;;;32.30;24.88;;;11.40;94.60;;;;;;4991746;28;20019;-68
2021/05/14 00:51:57;;;;;;;30.08;24.30;;;11.30;94.60;;;;;;4991830;28;20026;-68
2021/05/14 00:54:25;;;;;;;34.45;26.15;;;11.30;94.60;;;;;;4990655;28;20135;-68
2021/05/14 00:56:50;;;;;;;32.30;25.17;;;11.30;94.70;;;;;;4991857;28;20388;-68
2021/05/14 00:59:16;;;;;;;30.60;25.05;;;11.30;94.70;;;;;;4991100;28;20034;-68
2021/05/14 01:01:41;;;;;;;34.95;26.95;;;11.30;94.70;;;;;;4990469;28;20539;-68
2021/05/14 01:04:07;;;;;;;34.38;24.75;;;11.30;94.70;;;;;;4991425;28;20430;-68
2021/05/14 01:06:33;;;;;;;33.88;25.38;;;11.30;94.70;;;;;;4991471;28;20484;-68
2021/05/14 01:09:00;;;;;;;36.17;25.75;;;11.20;94.60;;;;;;4991510;28;20022;-68
2021/05/14 01:11:25;;;;;;;33.42;26.05;;;11.10;94.60;;;;;;4991674;28;20019;-68
2021/05/14 01:13:51;;;;;;;39.45;29.65;;;11.10;94.80;;;;;;4991460;28;20426;-68
2021/05/14 01:16:17;;;;;;;41.55;30.40;;;11.00;94.90;;;;;;4990564;28;20038;-68
2021/05/14 01:18:42;;;;;;;45.03;31.02;;;10.90;95.00;;;;;;4991177;28;20057;-68
2021/05/14 01:21:08;;;;;;;38.72;28.60;;;11.00;95.00;;;;;;4991249;28;20030;-68
2021/05/14 01:23:35;;;;;;;46.10;31.52;;;10.90;95.00;;;;;;4991616;28;20097;-68
2021/05/14 01:26:01;;;;;;;42.83;30.77;;;10.90;95.10;;;;;;4991229;28;20476;-68
2021/05/14 01:28:27;;;;;;;45.42;32.97;;;10.90;95.10;;;;;;4991304;28;20030;-68
2021/05/14 01:30:54;;;;;;;48.20;33.03;;;10.90;95.10;;;;;;4989430;28;20088;-68
2021/05/14 01:33:19;;;;;;;50.40;33.47;;;10.90;95.10;;;;;;4990837;28;20097;-68
2021/05/14 01:35:45;;;;;;;50.83;33.63;;;10.80;95.10;;;;;;4991198;28;20056;-68
2021/05/14 01:38:11;;;;;;;54.72;35.92;;;10.80;95.20;;;;;;4990967;28;20027;-68
2021/05/14 01:40:37;;;;;;;50.72;35.72;;;10.80;95.20;;;;;;4991167;28;20404;-68
2021/05/14 01:43:03;;;;;;;57.55;37.00;;;10.80;95.20;;;;;;4991197;28;20031;-68
2021/05/14 01:45:29;;;;;;;60.20;37.75;;;10.80;95.20;;;;;;4990923;28;20037;-68
2021/05/14 01:47:55;;;;;;;61.15;37.47;;;10.80;95.30;;;;;;4986062;28;20034;-68
2021/05/14 01:50:21;;;;;;;63.33;38.00;;;10.80;95.30;;;;;;4991134;28;20376;-68
2021/05/14 01:52:46;;;;;;;61.92;38.85;;;10.90;95.40;;;;;;4974342;28;20026;-68
2021/05/14 01:55:13;;;;;;;56.03;34.85;;;10.90;95.30;;;;;;4977343;28;20022;-68
2021/05/14 01:57:38;;;;;;;59.05;37.75;;;10.90;95.30;;;;;;4990987;28;20046;-68
2021/05/14 02:00:06;;;;;;;61.03;37.80;;;10.90;95.30;;;;;;4991009;28;20103;-68
2021/05/14 02:02:31;;;;;;;64.85;36.03;;;11.00;95.30;;;;;;4989733;28;20030;-68
2021/05/14 02:04:57;;;;;;;58.72;37.80;;;11.00;95.20;;;;;;4990936;28;20030;-68
2021/05/14 02:07:22;;;;;;;59.17;36.92;;;11.00;95.20;;;;;;4991212;28;20139;-68
2021/05/14 02:09:48;;;;;;;57.00;36.55;;;11.00;95.20;;;;;;4991391;28;20050;-68
2021/05/14 02:12:14;;;;;;;62.10;38.30;;;11.00;95.20;;;;;;4994410;28;20127;-68
2021/05/14 02:14:39;;;;;;;57.85;34.63;;;11.00;95.20;;;;;;4981961;28;20022;-68
2021/05/14 02:17:05;;;;;;;65.15;37.85;;;11.00;95.20;;;;;;4974905;28;20034;-68
2021/05/14 02:19:30;;;;;;;59.70;36.67;;;11.00;95.20;;;;;;4991847;28;20034;-68
2021/05/14 02:21:56;;;;;;;64.97;37.55;;;11.00;95.20;;;;;;4993334;28;20041;-68
2021/05/14 02:24:22;;;;;;;58.53;37.15;;;11.00;95.20;;;;;;4994346;28;20023;-68
2021/05/14 02:26:47;;;;;;;63.40;36.47;;;11.00;95.20;;;;;;4994147;28;20083;-68
2021/05/14 02:29:13;;;;;;;64.25;37.05;;;11.00;95.20;;;;;;4993998;28;20067;-68
2021/05/14 02:31:38;;;;;;;58.05;36.33;;;10.90;95.10;;;;;;4993916;28;20125;-68
2021/05/14 02:34:04;;;;;;;63.70;37.60;;;10.90;95.20;;;;;;4993779;28;20105;-68
2021/05/14 02:36:29;;;;;;;71.25;40.83;;;10.80;95.20;;;;;;4993644;28;20034;-68
2021/05/14 02:38:55;;;;;;;66.70;38.28;;;10.80;95.20;;;;;;4992702;28;20027;-68
2021/05/14 02:41:20;;;;;;;73.10;39.83;;;10.70;95.20;;;;;;4994061;28;20035;-68
2021/05/14 02:43:46;;;;;;;72.22;39.83;;;10.60;95.20;;;;;;4993976;28;20049;-68
2021/05/14 02:46:11;;;;;;;72.22;39.25;;;10.60;95.20;;;;;;4992692;28;20026;-68
2021/05/14 02:48:37;;;;;;;71.43;40.80;;;10.50;95.30;;;;;;4993831;28;20075;-68
2021/05/14 02:51:04;;;;;;;69.85;40.22;;;10.50;95.30;;;;;;4993920;28;20022;-68
2021/05/14 02:53:30;;;;;;;70.00;38.63;;;10.40;95.40;;;;;;4993759;28;20123;-68
2021/05/14 02:55:55;;;;;;;62.67;36.08;;;10.30;95.40;;;;;;4993592;28;20027;-68
2021/05/14 02:58:21;;;;;;;69.85;37.88;;;10.30;95.50;;;;;;4993713;28;20029;-68
2021/05/14 03:00:47;;;;;;;70.30;39.70;;;10.20;95.50;;;;;;4994242;28;20360;-68
2021/05/14 03:03:12;;;;;;;66.63;37.20;;;10.20;95.60;;;;;;4993601;28;20101;-68
2021/05/14 03:05:38;;;;;;;68.55;35.28;;;10.20;95.60;;;;;;4993510;28;20057;-68
2021/05/14 03:08:04;;;;;;;75.13;38.45;;;10.10;96.00;;;;;;4993719;28;20057;-68
2021/05/14 03:10:29;;;;;;;67.07;37.03;;;10.20;95.70;;;;;;4993459;28;20532;-68
2021/05/14 03:12:55;;;;;;;68.13;36.78;;;10.20;95.70;;;;;;4993425;28;20065;-68
2021/05/14 03:15:20;;;;;;;75.88;39.67;;;10.20;95.70;;;;;;4993376;28;20030;-68
2021/05/14 03:17:46;;;;;;;70.28;38.22;;;10.20;95.70;;;;;;4992061;28;20030;-67
2021/05/14 03:20:12;;;;;;;80.03;41.17;;;10.30;95.70;;;;;;4993501;28;20038;-68
2021/05/14 03:22:38;;;;;;;76.07;41.03;;;10.30;95.70;;;;;;4992845;28;20037;-68
2021/05/14 03:25:05;;;;;;;84.50;42.53;;;10.40;95.80;;;;;;4989555;28;20392;-68
2021/05/14 03:27:31;;;;;;;75.05;40.05;;;10.30;95.70;;;;;;4993258;28;20035;-68
2021/05/14 03:29:58;;;;;;;72.15;38.70;;;10.30;95.80;;;;;;4993100;28;20026;-68
2021/05/14 03:32:24;;;;;;;77.47;39.63;;;10.40;95.80;;;;;;4992854;28;20072;-68
2021/05/14 03:34:50;;;;;;;74.88;40.78;;;10.40;95.80;;;;;;4992766;28;20027;-68
2021/05/14 03:37:15;;;;;;;78.32;41.22;;;10.40;95.80;;;;;;4992884;28;20030;-68
2021/05/14 03:39:47;;;;;;;74.95;40.85;;;10.50;95.80;;;;;;4992978;28;20507;-68
2021/05/14 03:42:20;;;;;;;71.65;39.83;;;10.50;95.80;;;;;;4993500;28;20034;-68
2021/05/14 03:44:46;;;;;;;71.70;39.47;;;10.60;95.80;;;;;;4993209;28;20027;-68
2021/05/14 03:47:11;;;;;;;66.30;37.25;;;10.60;95.80;;;;;;4991698;28;20038;-68
2021/05/14 03:49:38;;;;;;;69.30;37.78;;;10.60;95.80;;;;;;4993082;28;20029;-68
2021/05/14 03:52:06;;;;;;;73.63;38.30;;;10.60;95.70;;;;;;4992738;28;20026;-68
2021/05/14 03:54:32;;;;;;;71.03;37.90;;;10.60;95.70;;;;;;4992900;28;20029;-68
2021/05/14 03:56:57;;;;;;;70.47;38.08;;;10.60;95.70;;;;;;4992773;28;20468;-68
2021/05/14 03:59:23;;;;;;;64.90;37.28;;;10.70;95.70;;;;;;4981369;28;20041;-68
2021/05/14 04:01:48;;;;;;;70.28;39.25;;;10.70;95.70;;;;;;4978009;28;20475;-68
2021/05/14 04:04:14;;;;;;;72.03;39.53;;;10.70;95.60;;;;;;4992636;28;20434;-68
2021/05/14 04:06:39;;;;;;;71.55;38.55;;;10.70;95.60;;;;;;4992673;28;20429;-68
2021/05/14 04:09:05;;;;;;;68.25;37.03;;;10.70;95.60;;;;;;4992506;28;20549;-68
2021/05/14 04:16:44;;;;;;;67.63;36.30;;;10.60;95.50;;;;;;4989837;28;20087;-68
2021/05/14 04:19:10;;;;;;;68.50;35.72;;;10.70;95.60;;;;;;4991268;28;20476;-68
2021/05/14 04:21:36;;;;;;;67.85;37.35;;;10.70;95.60;;;;;;4992316;28;20027;-68
2021/05/14 04:24:03;;;;;;;62.35;35.58;;;10.70;95.60;;;;;;4991646;28;20037;-68
2021/05/14 04:26:28;;;;;;;65.95;35.60;;;10.70;95.50;;;;;;4990339;28;20023;-68
2021/05/14 04:28:54;;;;;;;64.00;36.25;;;10.60;95.50;;;;;;4992107;28;20030;-68
2021/05/14 04:31:19;;;;;;;66.68;37.13;;;10.60;95.50;;;;;;4991963;28;20049;-68
2021/05/14 04:33:45;;;;;;;72.75;39.47;;;10.70;95.60;;;;;;4979287;28;20018;-68
2021/05/14 04:36:10;;;;;;;72.07;37.85;;;10.70;95.60;;;;;;4988059;28;20057;-68
2021/05/14 04:38:36;;;;;;;67.07;37.22;;;10.70;95.50;;;;;;4977191;28;20081;-68
2021/05/14 04:41:01;;;;;;;65.28;35.08;;;10.70;95.50;;;;;;4976184;28;20029;-68
2021/05/14 04:43:27;;;;;;;64.93;35.70;;;10.80;95.60;;;;;;4992095;28;20034;-68
2021/05/14 04:45:53;;;;;;;62.65;36.33;;;10.70;95.80;;;;;;4990638;28;20029;-68
2021/05/14 04:48:18;;;;;;;64.45;35.97;;;10.80;95.50;;;;;;4990829;28;20030;-68
2021/05/14 04:50:44;;;;;;;62.30;33.97;;;10.80;95.50;;;;;;4990812;28;20022;-68
2021/05/14 04:53:12;;;;;;;66.97;36.00;;;10.90;95.50;;;;;;4991972;28;20018;-68
2021/05/14 04:55:38;;;;;;;65.93;34.88;;;10.90;95.50;;;;;;4991949;28;20019;-68
2021/05/14 04:58:03;;;;;;;67.10;36.17;;;11.00;95.50;;;;;;4990648;28;20033;-68
2021/05/14 05:00:29;;;;;;;70.13;36.70;;;11.00;95.40;;;;;;4991516;28;20034;-68
2021/05/14 05:02:56;;;;;;;64.05;34.95;;;11.00;95.30;;;;;;4991900;28;20034;-68
2021/05/14 05:05:22;;;;;;;61.97;34.30;;;11.00;95.30;;;;;;4991682;28;20026;-68
2021/05/14 05:07:47;;;;;;;62.45;34.20;;;11.10;95.30;;;;;;4990418;28;20115;-68
2021/05/14 05:10:14;;;;;;;64.07;35.53;;;11.10;95.30;;;;;;4991641;28;20048;-68
2021/05/14 05:12:39;;;;;;;63.95;35.72;;;11.10;95.20;;;;;;4991578;28;20022;-68
2021/05/14 05:15:06;;;;;;;60.05;34.08;;;11.10;95.10;;;;;;4989219;28;20023;-68
2021/05/14 05:17:31;;;;;;;62.15;33.17;;;11.00;95.10;;;;;;4990128;28;20050;-68
2021/05/14 05:19:57;;;;;;;64.32;36.03;;;11.00;95.20;;;;;;4990821;28;20095;-68
2021/05/14 05:22:23;;;;;;;64.13;34.83;;;11.00;95.20;;;;;;4991525;28;20054;-68
2021/05/14 05:24:48;;;;;;;61.72;33.83;;;11.10;95.30;;;;;;4990319;28;20032;-67
2021/05/14 05:27:14;;;;;;;64.25;35.67;;;11.10;95.20;;;;;;4990406;28;20031;-68
2021/05/14 05:29:40;;;;;;;63.42;34.70;;;11.20;95.20;;;;;;4991196;28;20480;-68
2021/05/14 05:32:06;;;;;;;58.15;34.42;;;11.30;95.20;;;;;;4987959;28;20484;-67
2021/05/14 05:34:32;;;;;;;60.92;34.28;;;11.30;95.10;;;;;;4979249;28;20049;-68
2021/05/14 05:36:58;;;;;;;62.00;34.83;;;11.30;95.10;;;;;;4991453;28;20022;-67
2021/05/14 05:39:23;;;;;;;58.67;33.88;;;11.40;95.10;;;;;;4991224;28;20030;-67
2021/05/14 05:41:49;;;;;;;59.85;34.15;;;11.40;95.00;;;;;;4991257;28;20062;-67
2021/05/14 05:44:15;;;;;;;64.22;34.63;;;11.50;95.00;;;;;;4990691;28;20087;-68
2021/05/14 05:46:40;;;;;;;62.70;36.10;;;11.60;95.00;;;;;;4988368;28;20096;-68
2021/05/14 05:49:06;;;;;;;68.05;36.97;;;11.70;95.00;;;;;;4990544;28;20062;-68
2021/05/14 05:51:32;;;;;;;59.63;35.30;;;11.80;94.90;;;;;;4991010;28;20018;-68
2021/05/14 05:53:58;;;;;;;61.55;33.88;;;11.80;94.80;;;;;;4991264;28;20411;-67
2021/05/14 05:56:25;;;;;;;58.70;34.53;;;12.00;94.80;;;;;;4991026;28;20033;-67
2021/05/14 05:58:51;;;;;;;66.80;37.13;;;12.10;94.80;;;;;;4990723;28;20031;-67
2021/05/14 06:01:16;;;;;;;63.67;36.20;;;12.10;94.60;;;;;;4990984;28;20105;-68
2021/05/14 06:03:42;;;;;;;60.20;35.38;;;12.20;94.60;;;;;;4990750;28;20578;-68
2021/05/14 06:06:08;;;;;;;56.97;34.42;;;12.30;94.60;;;;;;4990818;28;20022;-68
2021/05/14 06:08:33;;;;;;;58.63;33.17;;;12.30;94.50;;;;;;4990820;28;20384;-68
2021/05/14 06:10:59;;;;;;;59.70;35.25;;;12.40;94.40;;;;;;4990796;28;20033;-67
2021/05/14 06:13:25;;;;;;;56.70;35.13;;;12.50;94.30;;;;;;4990611;28;20460;-67
2021/05/14 06:15:52;;;;;;;56.33;33.65;;;12.60;94.30;;;;;;4990232;28;20019;-68
2021/05/14 06:18:21;;;;;;;57.92;33.25;;;12.60;94.20;;;;;;4990230;28;20026;-67
2021/05/14 06:20:47;;;;;;;53.42;33.40;;;12.70;94.20;;;;;;4990660;28;20099;-68
2021/05/14 06:23:12;;;;;;;54.20;33.30;;;12.80;94.10;;;;;;4990781;28;20031;-67
2021/05/14 06:25:41;;;;;;;55.33;33.92;;;12.80;93.90;;;;;;4989731;28;20030;-67
2021/05/14 06:28:15;;;;;;;50.35;31.17;;;12.80;93.70;;;;;;4990416;28;20100;-68
2021/05/14 06:30:40;;;;;;;50.17;32.20;;;12.80;93.60;;;;;;4980390;28;20504;-67
2021/05/14 06:33:06;;;;;;;46.83;31.38;;;12.90;93.70;;;;;;4982937;28;20054;-67
2021/05/14 06:35:33;;;;;;;42.20;29.17;;;12.90;93.60;;;;;;4990887;28;20101;-67
2021/05/14 06:37:59;;;;;;;36.95;26.90;;;12.90;93.40;;;;;;4990742;28;20467;-67
2021/05/14 06:40:24;;;;;;;40.38;29.00;;;12.90;93.50;;;;;;4990613;28;20106;-67
2021/05/14 06:42:50;;;;;;;39.08;28.73;;;13.00;93.60;;;;;;4990233;28;20114;-67
2021/05/14 06:45:15;;;;;;;33.78;24.95;;;13.10;93.60;;;;;;4990477;28;20537;-67
2021/05/14 06:47:41;;;;;;;41.60;27.27;;;13.30;93.40;;;;;;4987836;28;20026;-67
2021/05/14 06:50:07;;;;;;;36.78;26.15;;;13.40;93.00;;;;;;4988789;28;20029;-67
2021/05/14 06:52:35;;;;;;;32.13;22.90;;;13.50;93.00;;;;;;4990437;28;20018;-68
2021/05/14 06:55:04;;;;;;;29.23;22.65;;;13.60;92.80;;;;;;4976875;28;20023;-67
2021/05/14 06:57:29;;;;;;;33.22;25.42;;;13.60;92.30;;;;;;4974360;28;20030;-68
2021/05/14 06:59:55;;;;;;;36.78;25.33;;;13.50;92.00;;;;;;4992705;28;20075;-68
2021/05/14 07:02:20;;;;;;;34.60;23.70;;;13.40;92.00;;;;;;4993081;28;20026;-68
2021/05/14 07:04:46;;;;;;;38.95;26.15;;;13.30;92.20;;;;;;4993615;28;20068;-68
2021/05/14 07:07:12;;;;;;;27.13;20.23;;;13.40;92.30;;;;;;4993363;28;20075;-68
2021/05/14 07:09:38;;;;;;;30.63;22.38;;;13.60;92.20;;;;;;4993614;28;20023;-67
2021/05/14 07:12:04;;;;;;;31.30;23.45;;;13.70;92.00;;;;;;4993141;28;20026;-68
2021/05/14 07:14:29;;;;;;;29.58;23.10;;;13.80;91.90;;;;;;4993434;28;20372;-68
2021/05/14 07:16:55;;;;;;;31.85;23.13;;;14.00;91.80;;;;;;4991129;28;20045;-68
2021/05/14 07:19:20;;;;;;;35.00;24.23;;;14.30;91.50;;;;;;4993382;28;20027;-68
2021/05/14 07:21:46;;;;;;;32.55;23.55;;;14.50;91.20;;;;;;4993164;28;20105;-68
2021/05/14 07:24:12;;;;;;;28.48;22.23;;;14.50;90.90;;;;;;4992251;28;20102;-68
2021/05/14 07:26:37;;;;;;;31.48;24.58;;;14.40;90.40;;;;;;4990219;28;20101;-68
2021/05/14 07:29:05;;;;;;;31.58;23.85;;;14.20;90.50;;;;;;4991665;28;20383;-68
2021/05/14 07:31:31;;;;;;;30.55;24.10;;;14.30;90.60;;;;;;4993048;28;20130;-68
2021/05/14 07:33:57;;;;;;;30.33;22.73;;;14.30;90.20;;;;;;4992825;28;20088;-68
2021/05/14 07:36:24;;;;;;;34.78;25.65;;;14.30;90.10;;;;;;4993204;28;20030;-68
2021/05/14 07:38:50;;;;;;;35.28;26.63;;;14.30;89.50;;;;;;4991771;28;20027;-68
2021/05/14 07:41:16;;;;;;;31.42;25.00;;;14.10;89.40;;;;;;4992780;28;20037;-67
2021/05/14 07:43:41;;;;;;;33.03;24.63;;;14.10;90.00;;;;;;4993005;28;20030;-68
2021/05/14 07:46:07;;;;;;;31.60;25.20;;;14.10;89.80;;;;;;4992929;28;20091;-68
2021/05/14 07:48:33;;;;;;;31.15;24.35;;;14.10;89.90;;;;;;4978230;28;20027;-68
2021/05/14 07:50:58;;;;;;;33.78;26.85;;;14.10;89.70;;;;;;4977342;28;20030;-68
2021/05/14 07:53:24;;;;;;;32.03;25.48;;;14.20;89.50;;;;;;4992111;28;20032;-69
2021/05/14 07:55:49;;;;;;;33.92;26.98;;;14.30;88.80;;;;;;4990803;28;20476;-68
2021/05/14 07:58:15;;;;;;;33.03;25.25;;;14.20;88.20;;;;;;4992803;28;20038;-68
2021/05/14 08:00:41;;;;;;;36.72;29.45;;;14.10;88.00;;;;;;4992723;28;20030;-68
2021/05/14 08:03:06;;;;;;;34.28;27.55;;;14.10;88.20;;;;;;4992782;28;20029;-69
2021/05/14 08:05:32;;;;;;;34.25;27.10;;;14.20;88.30;;;;;;4991457;28;20070;-68
2021/05/14 08:08:08;;;;;;;33.78;25.63;;;14.30;88.00;;;;;;4990672;28;20387;-68
2021/05/14 08:10:34;;;;;;;31.92;23.90;;;14.50;87.60;;;;;;4992352;28;20075;-69
2021/05/14 08:12:59;;;;;;;31.23;25.40;;;14.50;86.70;;;;;;4991391;28;20022;-69
2021/05/14 08:15:25;;;;;;;31.42;26.17;;;14.60;86.40;;;;;;4981870;28;20477;-69
2021/05/14 08:17:51;;;;;;;32.00;25.35;;;14.70;85.90;;;;;;4974475;28;20027;-68
2021/05/14 08:20:17;;;;;;;31.02;25.55;;;14.60;85.20;;;;;;4992418;28;20400;-70
2021/05/14 08:22:44;;;;;;;32.95;25.98;;;14.50;85.00;;;;;;4992597;28;20041;-70
2021/05/14 08:25:11;;;;;;;35.88;28.00;;;14.50;85.00;;;;;;4992051;28;20027;-68
2021/05/14 08:27:37;;;;;;;34.65;26.23;;;14.50;84.80;;;;;;4991879;28;20051;-70
2021/05/14 08:30:04;;;;;;;26.83;22.90;;;14.60;84.30;;;;;;4990369;28;20030;-70
2021/05/14 08:32:30;;;;;;;28.50;22.92;;;14.80;84.20;;;;;;4992114;28;20047;-70
2021/05/14 08:34:55;;;;;;;28.40;22.85;;;14.90;84.20;;;;;;4984729;28;20164;-70
2021/05/14 08:37:21;;;;;;;25.23;20.90;;;15.10;83.90;;;;;;4972935;28;20062;-69
2021/05/14 08:39:46;;;;;;;28.23;23.45;;;15.20;83.10;;;;;;4982655;28;20062;-69
2021/05/14 08:42:13;;;;;;;28.30;23.58;;;15.20;82.50;;;;;;4991832;28;20034;-68
2021/05/14 08:44:40;;;;;;;31.80;24.92;;;15.20;83.10;;;;;;4992129;28;20080;-68
2021/05/14 08:47:06;;;;;;;28.05;24.10;;;15.30;82.80;;;;;;4990669;28;20072;-68
2021/05/14 08:49:37;;;;;;;25.80;21.75;;;15.40;82.20;;;;;;4989351;28;20031;-68
2021/05/14 08:52:04;;;;;;;25.90;21.08;;;15.50;82.00;;;;;;4975526;28;20545;-68
2021/05/14 08:54:30;;;;;;;25.75;20.15;;;15.60;81.20;;;;;;4991871;28;20018;-68
2021/05/14 08:56:56;;;;;;;23.05;18.83;;;15.60;81.00;;;;;;4978690;28;20080;-68
2021/05/14 08:59:21;;;;;;;21.30;18.52;;;15.70;81.00;;;;;;4977115;28;20057;-68
2021/05/14 09:01:49;;;;;;;22.42;18.70;;;15.80;79.90;;;;;;4990660;28;20034;-68
2021/05/14 09:04:16;;;;;;;24.38;19.35;;;15.90;78.50;;;;;;4991806;28;20022;-68
2021/05/14 09:06:43;;;;;;;25.40;20.38;;;15.80;78.20;;;;;;4991590;28;20109;-68
2021/05/14 09:09:10;;;;;;;20.77;18.08;;;15.80;78.10;;;;;;5092381;28;20473;-68
2021/05/14 09:11:39;;;;;;;23.40;19.02;;;15.90;77.50;;;;;;5025360;28;20088;-68
2021/05/14 09:14:05;;;;;;;26.50;21.02;;;15.70;77.40;;;;;;4990759;28;20022;-68
2021/05/14 09:16:42;;;;;;;24.23;19.67;;;15.60;77.50;;;;;;4991583;28;20022;-68
2021/05/14 09:19:09;;;;;;;23.17;19.23;;;15.70;78.10;;;;;;4991201;28;20045;-68
2021/05/14 09:21:35;;;;;;;22.23;18.33;;;15.80;77.80;;;;;;4975792;28;20034;-71
2021/05/14 09:24:00;;;;;;;21.27;17.17;;;15.60;76.70;;;;;;4977016;28;20063;-68
2021/05/14 09:26:30;;;;;;;19.70;16.67;;;15.60;77.00;;;;;;4991110;28;20037;-68
2021/05/14 09:28:56;;;;;;;20.50;17.85;;;15.70;75.70;;;;;;4990573;28;20396;-68
2021/05/14 09:31:26;;;;;;;23.20;18.73;;;15.70;76.10;;;;;;4991089;28;20047;-68
2021/05/14 09:34:00;;;;;;;22.10;18.52;;;15.80;76.70;;;;;;4990121;28;20026;-69
2021/05/14 09:36:31;;;;;;;27.48;21.23;;;16.10;76.60;;;;;;4991002;28;20430;-69
2021/05/14 09:39:02;;;;;;;24.05;19.70;;;16.30;75.70;;;;;;4991144;28;20484;-68
2021/05/14 09:41:31;;;;;;;23.20;19.63;;;16.40;75.30;;;;;;4991365;28;20034;-68
2021/05/14 09:44:08;;;;;;;25.60;20.40;;;16.40;74.70;;;;;;4991268;28;20111;-69
2021/05/14 09:46:41;;;;;;;21.90;17.65;;;16.50;74.20;;;;;;4989795;28;20076;-68
2021/05/14 09:49:09;;;;;;;23.08;19.70;;;16.40;73.20;;;;;;4989563;28;20022;-70
2021/05/14 09:51:44;;;;;;;20.98;18.05;;;16.40;74.00;;;;;;4990958;28;20468;-70
2021/05/14 09:54:29;;;;;;;22.00;17.48;;;16.40;74.30;;;;;;4989944;28;20117;-70
2021/05/14 09:57:16;;;;;;;21.23;17.67;;;16.50;73.80;;;;;;4970348;28;20042;-70
2021/05/14 09:59:53;;;;;;;23.15;19.30;;;16.60;73.60;;;;;;4977210;28;20100;-70
2021/05/14 10:02:30;;;;;;;23.10;18.40;;;16.80;74.20;;;;;;4990842;28;20037;-70
2021/05/14 10:04:57;;;;;;;20.02;17.45;;;17.00;72.50;;;;;;4988488;28;20030;-70
2021/05/14 10:07:25;;;;;;;24.42;18.15;;;16.90;72.90;;;;;;4990735;28;20033;-70
2021/05/14 10:09:54;;;;;;;21.00;16.90;;;17.10;73.00;;;;;;4990459;28;20117;-70
2021/05/14 10:12:20;;;;;;;22.75;18.85;;;17.20;70.70;;;;;;4988541;28;20031;-70
2021/05/14 10:14:46;;;;;;;19.55;17.17;;;17.10;70.50;;;;;;4990482;28;20022;-68
2021/05/14 10:17:12;;;;;;;22.83;18.02;;;17.20;70.90;;;;;;4990696;28;20031;-68
2021/05/14 10:19:39;;;;;;;21.95;17.50;;;17.30;70.90;;;;;;4990669;28;20042;-70
2021/05/14 10:22:06;;;;;;;17.20;14.40;;;17.20;70.60;;;;;;4990713;28;20034;-70
2021/05/14 10:24:46;;;;;;;16.48;14.40;;;17.20;71.00;;;;;;4983705;28;20019;-70
2021/05/14 10:27:19;;;;;;;17.27;14.27;;;17.50;70.50;;;;;;4988324;28;20058;-70
2021/05/14 10:29:47;;;;;;;21.52;17.50;;;17.80;69.80;;;;;;4990426;28;20025;-70
2021/05/14 10:32:13;;;;;;;19.98;16.67;;;18.20;67.80;;;;;;4977786;28;20093;-70
2021/05/14 10:34:39;;;;;;;17.80;15.32;;;18.10;67.10;;;;;;4985532;28;20023;-70
2021/05/14 10:37:06;;;;;;;20.73;15.25;;;18.00;67.70;;;;;;4974453;28;20092;-70
2021/05/14 10:39:41;;;;;;;17.65;14.18;;;18.10;66.70;;;;;;4985614;28;20506;-70
2021/05/14 10:42:08;;;;;;;19.48;16.15;;;18.40;67.00;;;;;;4993899;28;20033;-70
2021/05/14 10:44:48;;;;;;;21.00;17.73;;;18.30;65.50;;;;;;4993796;28;20027;-70
2021/05/14 10:47:26;;;;;;;17.30;15.23;;;18.00;65.60;;;;;;4993287;28;20467;-70
2021/05/14 10:50:05;;;;;;;17.42;15.27;;;17.70;67.60;;;;;;4993749;28;20376;-70
2021/05/14 10:52:33;;;;;;;16.88;14.48;;;17.80;66.50;;;;;;4993768;28;20049;-70
2021/05/14 10:54:59;;;;;;;16.33;13.57;;;17.90;65.80;;;;;;4993824;28;20018;-70
2021/05/14 10:57:39;;;;;;;20.60;13.70;;;17.90;66.10;;;;;;4993981;28;20481;-70
2021/05/14 11:00:30;;;;;;;18.00;15.82;;;18.20;65.50;;;;;;4987555;28;20031;-70
2021/05/14 11:03:13;;;;;;;19.40;14.73;;;18.00;65.40;;;;;;4974329;28;20023;-68
2021/05/14 11:05:43;;;;;;;18.02;14.82;;;17.80;66.20;;;;;;4990056;28;20107;-68
2021/05/14 11:08:28;;;;;;;17.42;13.70;;;17.50;66.70;;;;;;4984466;28;20511;-68
2021/05/14 11:11:02;;;;;;;16.65;13.80;;;17.50;67.50;;;;;;4975285;28;20266;-69
2021/05/14 11:13:36;;;;;;;18.45;14.07;;;17.70;67.30;;;;;;4992294;28;20030;-68
2021/05/14 11:16:34;;;;;;;14.77;11.82;;;17.90;67.20;;;;;;4993226;28;20396;-68
2021/05/14 11:19:21;;;;;;;14.35;12.20;;;18.00;65.60;;;;;;4993312;28;20027;-69
2021/05/14 11:22:17;;;;;;;12.40;10.57;;;18.10;65.60;;;;;;4979616;28;20053;-68
2021/05/14 11:24:47;;;;;;;11.25;9.60;;;18.10;65.20;;;;;;4993185;28;20019;-68
2021/05/14 11:27:16;;;;;;;13.88;10.68;;;18.10;64.40;;;;;;4992992;28;20033;-69
2021/05/14 11:29:51;;;;;;;16.98;12.18;;;18.00;64.50;;;;;;4993285;28;20022;-68
2021/05/14 11:32:21;;;;;;;14.93;12.13;;;18.00;64.30;;;;;;4991698;28;20049;-68
2021/05/14 11:34:51;;;;;;;14.15;10.82;;;18.10;64.70;;;;;;4993115;28;20023;-69
2021/05/14 11:37:22;;;;;;;12.02;10.40;;;18.00;63.90;;;;;;4991511;28;20030;-68
2021/05/14 11:39:47;;;;;;;13.88;11.45;;;18.00;64.40;;;;;;4992735;28;20025;-68
2021/05/14 11:42:18;;;;;;;13.13;10.68;;;18.20;64.10;;;;;;4991515;28;20027;-69
2021/05/14 11:45:03;;;;;;;15.52;12.32;;;18.30;64.40;;;;;;4982780;28;20025;-69
2021/05/14 11:47:29;;;;;;;13.93;12.45;;;18.30;63.00;;;;;;4975206;28;20049;-69
2021/05/14 11:49:56;;;;;;;14.95;11.10;;;18.10;62.90;;;;;;4992783;28;20068;-69
2021/05/14 11:52:41;;;;;;;13.70;10.73;;;18.10;62.80;;;;;;4992636;28;20030;-69
2021/05/14 11:55:10;;;;;;;10.65;9.27;;;17.80;62.20;;;;;;4992674;28;20027;-68
2021/05/14 11:57:37;;;;;;;14.43;9.52;;;17.80;62.60;;;;;;4992479;28;20026;-68
2021/05/14 12:00:06;;;;;;;16.38;11.75;;;17.60;62.90;;;;;;4992683;28;20472;-69
2021/05/14 12:02:37;;;;;;;14.15;11.75;;;17.70;63.50;;;;;;4989496;28;20499;-69
2021/05/14 12:05:05;;;;;;;16.30;12.85;;;17.80;63.40;;;;;;4992263;28;20023;-69
2021/05/14 12:07:30;;;;;;;17.20;13.30;;;17.70;63.90;;;;;;4992328;28;20019;-68
2021/05/14 12:09:57;;;;;;;16.58;12.90;;;17.80;63.70;;;;;;4991132;28;20025;-68
2021/05/14 12:12:22;;;;;;;16.55;12.77;;;17.80;63.60;;;;;;4990420;28;20472;-68
2021/05/14 12:14:48;;;;;;;14.85;12.57;;;17.70;63.60;;;;;;4992479;28;20034;-69
2021/05/14 12:17:13;;;;;;;15.57;12.68;;;17.80;63.80;;;;;;4992167;28;20041;-69
2021/05/14 12:19:47;;;;;;;14.95;12.05;;;17.90;63.90;;;;;;4991078;28;20100;-68
2021/05/14 12:22:13;;;;;;;14.98;13.18;;;17.80;63.90;;;;;;4987516;28;20387;-68
2021/05/14 12:24:40;;;;;;;14.05;11.00;;;17.70;64.00;;;;;;4989812;28;20140;-68
2021/05/14 12:27:09;;;;;;;14.07;12.07;;;17.70;64.00;;;;;;4985095;28;20023;-68
2021/05/14 12:29:35;;;;;;;12.75;10.63;;;17.60;64.50;;;;;;4975956;28;20099;-69
2021/05/14 12:32:03;;;;;;;15.13;12.63;;;17.70;66.20;;;;;;4991610;28;20073;-68
2021/05/14 12:34:29;;;;;;;17.55;12.98;;;17.90;65.10;;;;;;4975721;28;20027;-68